Long Valley, New Jersey
Current Conditions -  °F | °C
As of 3:53 AM on Thursday 23 Oct 2014 (Local Time) from KSMQ Reporting Station
Overcast Overcast  
Wind Chill: 53°   Ceiling: 2600
Heat Index: 53°   Visibility: 10mi
Dew Point: 46°   Wind: 10mph
Humidity: 77%   Direction: 350°N
Pressure: 29.72"   Gusts: 20mph
Location:  40.79°N, 74.77°W
Report Text: KSMQ 230753Z AUTO 35009G17KT 10SM OVC026 12/08 A2972 RMK AO2 SLP064 T01170078
Loading
Personal Weather Stations






























Interactive Weather Map
Tropical Storm Tracking
New forecast layout! Learn more

10-Day Weather Forecast

Advertisements
Track Severe Weather on mobile